sensor_id;sensor_type;location;lat;lon;timestamp;P1;durP1;ratioP1;P2;durP2;ratioP2
25123;SDS011;13104;51.030;4.686;2022-07-23T00:00:29;25.25;;;18.33;;
25123;SDS011;13104;51.030;4.686;2022-07-23T00:02:55;27.90;;;18.83;;
25123;SDS011;13104;51.030;4.686;2022-07-23T00:05:21;25.48;;;19.08;;
25123;SDS011;13104;51.030;4.686;2022-07-23T00:07:48;25.55;;;18.92;;
25123;SDS011;13104;51.030;4.686;2022-07-23T00:10:14;25.73;;;19.30;;
25123;SDS011;13104;51.030;4.686;2022-07-23T00:12:40;28.63;;;19.83;;
25123;SDS011;13104;51.030;4.686;2022-07-23T00:15:07;24.08;;;18.52;;
25123;SDS011;13104;51.030;4.686;2022-07-23T00:17:34;23.75;;;19.13;;
25123;SDS011;13104;51.030;4.686;2022-07-23T00:20:00;26.15;;;20.13;;
25123;SDS011;13104;51.030;4.686;2022-07-23T00:22:26;30.90;;;20.80;;
25123;SDS011;13104;51.030;4.686;2022-07-23T00:24:54;24.95;;;19.80;;
25123;SDS011;13104;51.030;4.686;2022-07-23T00:27:20;30.00;;;20.42;;
25123;SDS011;13104;51.030;4.686;2022-07-23T00:29:46;27.35;;;20.55;;
25123;SDS011;13104;51.030;4.686;2022-07-23T00:32:12;24.98;;;19.15;;
25123;SDS011;13104;51.030;4.686;2022-07-23T00:34:38;26.52;;;18.52;;
25123;SDS011;13104;51.030;4.686;2022-07-23T00:37:04;28.35;;;19.60;;
25123;SDS011;13104;51.030;4.686;2022-07-23T00:39:30;26.60;;;19.45;;
25123;SDS011;13104;51.030;4.686;2022-07-23T00:41:57;24.25;;;18.95;;
25123;SDS011;13104;51.030;4.686;2022-07-23T00:44:23;28.00;;;20.02;;
25123;SDS011;13104;51.030;4.686;2022-07-23T00:46:51;28.52;;;20.08;;
25123;SDS011;13104;51.030;4.686;2022-07-23T00:49:28;25.77;;;18.73;;
25123;SDS011;13104;51.030;4.686;2022-07-23T00:51:54;26.88;;;19.08;;
25123;SDS011;13104;51.030;4.686;2022-07-23T00:54:25;25.42;;;19.85;;
25123;SDS011;13104;51.030;4.686;2022-07-23T00:56:51;28.00;;;19.48;;
25123;SDS011;13104;51.030;4.686;2022-07-23T00:59:17;29.60;;;19.27;;
25123;SDS011;13104;51.030;4.686;2022-07-23T01:01:43;28.92;;;20.65;;
25123;SDS011;13104;51.030;4.686;2022-07-23T01:04:12;26.63;;;20.35;;
25123;SDS011;13104;51.030;4.686;2022-07-23T01:06:40;26.00;;;19.05;;
25123;SDS011;13104;51.030;4.686;2022-07-23T01:09:06;26.80;;;20.63;;
25123;SDS011;13104;51.030;4.686;2022-07-23T01:11:33;27.27;;;19.48;;
25123;SDS011;13104;51.030;4.686;2022-07-23T01:14:07;28.17;;;21.55;;
25123;SDS011;13104;51.030;4.686;2022-07-23T01:16:33;25.25;;;20.50;;
25123;SDS011;13104;51.030;4.686;2022-07-23T01:18:59;28.48;;;20.60;;
25123;SDS011;13104;51.030;4.686;2022-07-23T01:21:25;24.95;;;19.73;;
25123;SDS011;13104;51.030;4.686;2022-07-23T01:23:51;25.35;;;18.38;;
25123;SDS011;13104;51.030;4.686;2022-07-23T01:26:17;26.98;;;18.80;;
25123;SDS011;13104;51.030;4.686;2022-07-23T01:28:43;28.38;;;20.55;;
25123;SDS011;13104;51.030;4.686;2022-07-23T01:31:10;26.13;;;19.45;;
25123;SDS011;13104;51.030;4.686;2022-07-23T01:33:36;26.27;;;20.40;;
25123;SDS011;13104;51.030;4.686;2022-07-23T01:36:02;31.05;;;20.65;;
25123;SDS011;13104;51.030;4.686;2022-07-23T01:38:28;24.88;;;19.58;;
25123;SDS011;13104;51.030;4.686;2022-07-23T01:40:54;22.63;;;18.27;;
25123;SDS011;13104;51.030;4.686;2022-07-23T01:43:20;29.98;;;19.70;;
25123;SDS011;13104;51.030;4.686;2022-07-23T01:45:46;28.13;;;20.88;;
25123;SDS011;13104;51.030;4.686;2022-07-23T01:48:12;30.63;;;20.80;;
25123;SDS011;13104;51.030;4.686;2022-07-23T01:50:38;30.05;;;20.70;;
25123;SDS011;13104;51.030;4.686;2022-07-23T01:53:04;26.92;;;20.40;;
25123;SDS011;13104;51.030;4.686;2022-07-23T01:55:30;30.67;;;20.23;;
25123;SDS011;13104;51.030;4.686;2022-07-23T01:57:56;28.33;;;20.10;;
25123;SDS011;13104;51.030;4.686;2022-07-23T02:00:22;26.48;;;20.05;;
25123;SDS011;13104;51.030;4.686;2022-07-23T02:02:49;24.38;;;19.15;;
25123;SDS011;13104;51.030;4.686;2022-07-23T02:05:15;27.52;;;20.17;;
25123;SDS011;13104;51.030;4.686;2022-07-23T02:07:41;25.85;;;19.95;;
25123;SDS011;13104;51.030;4.686;2022-07-23T02:10:07;27.83;;;20.08;;
25123;SDS011;13104;51.030;4.686;2022-07-23T02:12:34;28.58;;;19.92;;
25123;SDS011;13104;51.030;4.686;2022-07-23T02:15:00;29.15;;;19.48;;
25123;SDS011;13104;51.030;4.686;2022-07-23T02:17:26;27.33;;;19.88;;
25123;SDS011;13104;51.030;4.686;2022-07-23T02:19:52;26.30;;;19.65;;
25123;SDS011;13104;51.030;4.686;2022-07-23T02:22:18;29.02;;;20.45;;
25123;SDS011;13104;51.030;4.686;2022-07-23T02:24:45;26.90;;;19.80;;
25123;SDS011;13104;51.030;4.686;2022-07-23T02:27:11;26.88;;;20.50;;
25123;SDS011;13104;51.030;4.686;2022-07-23T02:29:37;27.83;;;19.52;;
25123;SDS011;13104;51.030;4.686;2022-07-23T02:32:03;28.33;;;20.02;;
25123;SDS011;13104;51.030;4.686;2022-07-23T02:34:29;24.00;;;18.92;;
25123;SDS011;13104;51.030;4.686;2022-07-23T02:36:55;32.58;;;19.38;;
25123;SDS011;13104;51.030;4.686;2022-07-23T02:39:21;26.58;;;19.95;;
25123;SDS011;13104;51.030;4.686;2022-07-23T02:41:47;26.05;;;20.30;;
25123;SDS011;13104;51.030;4.686;2022-07-23T02:44:13;29.13;;;20.58;;
25123;SDS011;13104;51.030;4.686;2022-07-23T02:46:39;29.48;;;20.08;;
25123;SDS011;13104;51.030;4.686;2022-07-23T02:49:05;28.15;;;20.85;;
25123;SDS011;13104;51.030;4.686;2022-07-23T02:51:31;29.48;;;20.67;;
25123;SDS011;13104;51.030;4.686;2022-07-23T02:53:57;26.08;;;19.83;;
25123;SDS011;13104;51.030;4.686;2022-07-23T02:56:24;30.77;;;20.45;;
25123;SDS011;13104;51.030;4.686;2022-07-23T02:58:50;28.63;;;20.65;;
25123;SDS011;13104;51.030;4.686;2022-07-23T03:01:16;32.30;;;20.08;;
25123;SDS011;13104;51.030;4.686;2022-07-23T03:03:42;28.55;;;20.15;;
25123;SDS011;13104;51.030;4.686;2022-07-23T03:06:08;33.90;;;21.85;;
25123;SDS011;13104;51.030;4.686;2022-07-23T03:08:34;28.88;;;21.10;;
25123;SDS011;13104;51.030;4.686;2022-07-23T03:11:00;28.98;;;21.02;;
25123;SDS011;13104;51.030;4.686;2022-07-23T03:13:26;28.73;;;20.60;;
25123;SDS011;13104;51.030;4.686;2022-07-23T03:15:54;30.50;;;20.90;;
25123;SDS011;13104;51.030;4.686;2022-07-23T03:18:20;30.77;;;20.80;;
25123;SDS011;13104;51.030;4.686;2022-07-23T03:20:46;33.92;;;20.75;;
25123;SDS011;13104;51.030;4.686;2022-07-23T03:23:12;27.50;;;20.63;;
25123;SDS011;13104;51.030;4.686;2022-07-23T03:25:38;27.65;;;20.40;;
25123;SDS011;13104;51.030;4.686;2022-07-23T03:28:04;28.92;;;20.52;;
25123;SDS011;13104;51.030;4.686;2022-07-23T03:30:31;29.77;;;19.90;;
25123;SDS011;13104;51.030;4.686;2022-07-23T03:32:57;29.98;;;20.40;;
25123;SDS011;13104;51.030;4.686;2022-07-23T03:35:23;30.23;;;19.75;;
25123;SDS011;13104;51.030;4.686;2022-07-23T03:37:49;26.95;;;19.65;;
25123;SDS011;13104;51.030;4.686;2022-07-23T03:40:15;26.38;;;19.15;;
25123;SDS011;13104;51.030;4.686;2022-07-23T03:42:41;26.80;;;19.35;;
25123;SDS011;13104;51.030;4.686;2022-07-23T03:45:08;24.98;;;18.52;;
25123;SDS011;13104;51.030;4.686;2022-07-23T03:47:34;29.38;;;19.85;;
25123;SDS011;13104;51.030;4.686;2022-07-23T03:50:01;28.20;;;19.98;;
25123;SDS011;13104;51.030;4.686;2022-07-23T03:52:27;26.63;;;20.13;;
25123;SDS011;13104;51.030;4.686;2022-07-23T03:54:53;28.13;;;19.63;;
25123;SDS011;13104;51.030;4.686;2022-07-23T03:57:19;29.00;;;20.95;;
25123;SDS011;13104;51.030;4.686;2022-07-23T03:59:55;28.58;;;20.25;;
25123;SDS011;13104;51.030;4.686;2022-07-23T04:05:25;29.27;;;21.55;;
25123;SDS011;13104;51.030;4.686;2022-07-23T04:07:51;27.88;;;19.67;;
25123;SDS011;13104;51.030;4.686;2022-07-23T04:10:18;26.70;;;20.02;;
25123;SDS011;13104;51.030;4.686;2022-07-23T04:12:44;26.73;;;20.55;;
25123;SDS011;13104;51.030;4.686;2022-07-23T04:15:10;29.83;;;20.27;;
25123;SDS011;13104;51.030;4.686;2022-07-23T04:17:36;27.98;;;20.70;;
25123;SDS011;13104;51.030;4.686;2022-07-23T04:20:02;29.98;;;20.42;;
25123;SDS011;13104;51.030;4.686;2022-07-23T04:25:15;25.50;;;18.55;;
25123;SDS011;13104;51.030;4.686;2022-07-23T04:27:42;28.98;;;19.50;;
25123;SDS011;13104;51.030;4.686;2022-07-23T04:30:08;28.25;;;19.08;;
25123;SDS011;13104;51.030;4.686;2022-07-23T04:32:34;25.33;;;19.75;;
25123;SDS011;13104;51.030;4.686;2022-07-23T04:35:00;24.15;;;18.75;;
25123;SDS011;13104;51.030;4.686;2022-07-23T04:37:27;29.33;;;19.40;;
25123;SDS011;13104;51.030;4.686;2022-07-23T04:39:53;25.27;;;18.45;;
25123;SDS011;13104;51.030;4.686;2022-07-23T04:42:19;25.40;;;19.67;;
25123;SDS011;13104;51.030;4.686;2022-07-23T04:44:45;28.17;;;19.60;;
25123;SDS011;13104;51.030;4.686;2022-07-23T04:47:11;28.27;;;19.17;;
25123;SDS011;13104;51.030;4.686;2022-07-23T04:49:37;27.27;;;18.85;;
25123;SDS011;13104;51.030;4.686;2022-07-23T04:52:03;29.80;;;19.20;;
25123;SDS011;13104;51.030;4.686;2022-07-23T04:54:30;25.13;;;18.08;;
25123;SDS011;13104;51.030;4.686;2022-07-23T04:56:56;23.15;;;18.20;;
25123;SDS011;13104;51.030;4.686;2022-07-23T04:59:22;24.08;;;17.50;;
25123;SDS011;13104;51.030;4.686;2022-07-23T05:01:48;25.35;;;16.60;;
25123;SDS011;13104;51.030;4.686;2022-07-23T05:04:14;24.55;;;18.35;;
25123;SDS011;13104;51.030;4.686;2022-07-23T05:06:40;25.00;;;17.08;;
25123;SDS011;13104;51.030;4.686;2022-07-23T05:09:06;22.60;;;17.38;;
25123;SDS011;13104;51.030;4.686;2022-07-23T05:11:32;23.25;;;17.77;;
25123;SDS011;13104;51.030;4.686;2022-07-23T05:13:58;23.73;;;17.55;;
25123;SDS011;13104;51.030;4.686;2022-07-23T05:16:24;26.77;;;17.77;;
25123;SDS011;13104;51.030;4.686;2022-07-23T05:18:51;28.85;;;19.67;;
25123;SDS011;13104;51.030;4.686;2022-07-23T05:21:17;27.38;;;19.95;;
25123;SDS011;13104;51.030;4.686;2022-07-23T05:23:43;28.48;;;19.50;;
25123;SDS011;13104;51.030;4.686;2022-07-23T05:26:09;26.70;;;19.98;;
25123;SDS011;13104;51.030;4.686;2022-07-23T05:28:36;29.67;;;20.85;;
25123;SDS011;13104;51.030;4.686;2022-07-23T05:31:02;29.55;;;21.40;;
25123;SDS011;13104;51.030;4.686;2022-07-23T05:33:29;26.67;;;20.20;;
25123;SDS011;13104;51.030;4.686;2022-07-23T05:36:05;26.90;;;18.70;;
25123;SDS011;13104;51.030;4.686;2022-07-23T05:38:32;29.50;;;20.90;;
25123;SDS011;13104;51.030;4.686;2022-07-23T05:40:58;31.25;;;21.73;;
25123;SDS011;13104;51.030;4.686;2022-07-23T05:43:24;29.15;;;20.92;;
25123;SDS011;13104;51.030;4.686;2022-07-23T05:45:50;29.42;;;21.40;;
25123;SDS011;13104;51.030;4.686;2022-07-23T05:48:16;25.85;;;20.50;;
25123;SDS011;13104;51.030;4.686;2022-07-23T05:50:43;32.92;;;21.48;;
25123;SDS011;13104;51.030;4.686;2022-07-23T05:53:09;32.70;;;21.98;;
25123;SDS011;13104;51.030;4.686;2022-07-23T05:55:35;26.33;;;20.55;;
25123;SDS011;13104;51.030;4.686;2022-07-23T05:58:01;30.15;;;20.60;;
25123;SDS011;13104;51.030;4.686;2022-07-23T06:00:27;28.58;;;20.05;;
25123;SDS011;13104;51.030;4.686;2022-07-23T06:02:53;28.15;;;20.65;;
25123;SDS011;13104;51.030;4.686;2022-07-23T06:05:20;29.27;;;21.05;;
25123;SDS011;13104;51.030;4.686;2022-07-23T06:07:46;27.25;;;21.15;;
25123;SDS011;13104;51.030;4.686;2022-07-23T06:10:12;29.02;;;21.08;;
25123;SDS011;13104;51.030;4.686;2022-07-23T06:12:38;25.92;;;19.33;;
25123;SDS011;13104;51.030;4.686;2022-07-23T06:15:05;23.58;;;19.15;;
25123;SDS011;13104;51.030;4.686;2022-07-23T06:17:31;29.60;;;19.60;;
25123;SDS011;13104;51.030;4.686;2022-07-23T06:19:57;22.80;;;18.70;;
25123;SDS011;13104;51.030;4.686;2022-07-23T06:22:23;26.83;;;18.48;;
25123;SDS011;13104;51.030;4.686;2022-07-23T06:24:50;23.10;;;16.63;;
25123;SDS011;13104;51.030;4.686;2022-07-23T06:27:19;22.08;;;15.63;;
25123;SDS011;13104;51.030;4.686;2022-07-23T06:29:45;18.67;;;15.00;;
25123;SDS011;13104;51.030;4.686;2022-07-23T06:32:11;24.42;;;15.25;;
25123;SDS011;13104;51.030;4.686;2022-07-23T06:34:38;20.80;;;13.35;;
25123;SDS011;13104;51.030;4.686;2022-07-23T06:37:04;17.77;;;13.43;;
25123;SDS011;13104;51.030;4.686;2022-07-23T06:39:31;16.60;;;12.35;;
25123;SDS011;13104;51.030;4.686;2022-07-23T06:41:57;20.60;;;13.30;;
25123;SDS011;13104;51.030;4.686;2022-07-23T06:44:23;20.52;;;13.02;;
25123;SDS011;13104;51.030;4.686;2022-07-23T06:46:49;16.90;;;13.13;;
25123;SDS011;13104;51.030;4.686;2022-07-23T06:49:15;18.20;;;13.10;;
25123;SDS011;13104;51.030;4.686;2022-07-23T06:51:41;15.35;;;12.70;;
25123;SDS011;13104;51.030;4.686;2022-07-23T06:54:07;16.83;;;12.25;;
25123;SDS011;13104;51.030;4.686;2022-07-23T06:56:33;20.27;;;13.55;;
25123;SDS011;13104;51.030;4.686;2022-07-23T06:59:00;17.02;;;11.85;;
25123;SDS011;13104;51.030;4.686;2022-07-23T07:01:26;18.25;;;11.90;;
25123;SDS011;13104;51.030;4.686;2022-07-23T07:03:52;14.02;;;11.07;;
25123;SDS011;13104;51.030;4.686;2022-07-23T07:06:18;17.80;;;11.02;;
25123;SDS011;13104;51.030;4.686;2022-07-23T07:08:44;14.55;;;12.32;;
25123;SDS011;13104;51.030;4.686;2022-07-23T07:11:10;21.40;;;12.82;;
25123;SDS011;13104;51.030;4.686;2022-07-23T07:13:37;15.93;;;12.00;;
25123;SDS011;13104;51.030;4.686;2022-07-23T07:16:03;17.90;;;11.82;;
25123;SDS011;13104;51.030;4.686;2022-07-23T07:18:30;18.17;;;12.52;;
25123;SDS011;13104;51.030;4.686;2022-07-23T07:20:56;16.67;;;11.93;;
25123;SDS011;13104;51.030;4.686;2022-07-23T07:23:23;15.63;;;11.90;;
25123;SDS011;13104;51.030;4.686;2022-07-23T07:25:49;15.93;;;12.20;;
25123;SDS011;13104;51.030;4.686;2022-07-23T07:28:15;22.45;;;12.57;;
25123;SDS011;13104;51.030;4.686;2022-07-23T07:30:41;18.08;;;12.73;;
25123;SDS011;13104;51.030;4.686;2022-07-23T07:33:07;16.08;;;10.85;;
25123;SDS011;13104;51.030;4.686;2022-07-23T07:35:33;18.10;;;11.80;;
25123;SDS011;13104;51.030;4.686;2022-07-23T07:38:00;15.75;;;10.52;;
25123;SDS011;13104;51.030;4.686;2022-07-23T07:40:26;14.13;;;10.23;;
25123;SDS011;13104;51.030;4.686;2022-07-23T07:42:53;13.68;;;10.27;;
25123;SDS011;13104;51.030;4.686;2022-07-23T07:45:21;20.08;;;10.68;;
25123;SDS011;13104;51.030;4.686;2022-07-23T07:47:48;17.27;;;10.82;;
25123;SDS011;13104;51.030;4.686;2022-07-23T07:50:14;17.02;;;11.45;;
25123;SDS011;13104;51.030;4.686;2022-07-23T07:52:40;12.90;;;9.35;;
25123;SDS011;13104;51.030;4.686;2022-07-23T07:55:08;16.33;;;9.60;;
25123;SDS011;13104;51.030;4.686;2022-07-23T07:57:34;17.70;;;10.57;;
25123;SDS011;13104;51.030;4.686;2022-07-23T08:00:00;15.07;;;10.25;;
25123;SDS011;13104;51.030;4.686;2022-07-23T08:02:26;14.93;;;10.57;;
25123;SDS011;13104;51.030;4.686;2022-07-23T08:05:14;14.82;;;9.95;;
25123;SDS011;13104;51.030;4.686;2022-07-23T08:08:00;15.82;;;9.98;;
25123;SDS011;13104;51.030;4.686;2022-07-23T08:16:48;14.10;;;8.38;;
25123;SDS011;13104;51.030;4.686;2022-07-23T08:34:40;14.63;;;8.50;;
25123;SDS011;13104;51.030;4.686;2022-07-23T08:37:08;12.50;;;8.00;;
25123;SDS011;13104;51.030;4.686;2022-07-23T08:39:34;13.88;;;7.43;;
25123;SDS011;13104;51.030;4.686;2022-07-23T08:42:00;11.57;;;6.22;;
25123;SDS011;13104;51.030;4.686;2022-07-23T08:44:26;8.85;;;7.07;;
25123;SDS011;13104;51.030;4.686;2022-07-23T08:46:53;9.63;;;7.05;;
25123;SDS011;13104;51.030;4.686;2022-07-23T08:49:19;9.05;;;8.02;;
25123;SDS011;13104;51.030;4.686;2022-07-23T08:51:46;11.82;;;7.60;;
25123;SDS011;13104;51.030;4.686;2022-07-23T08:54:12;13.30;;;7.57;;
25123;SDS011;13104;51.030;4.686;2022-07-23T08:56:38;11.43;;;7.75;;
25123;SDS011;13104;51.030;4.686;2022-07-23T08:59:04;13.63;;;8.40;;
25123;SDS011;13104;51.030;4.686;2022-07-23T09:01:30;13.18;;;8.90;;
25123;SDS011;13104;51.030;4.686;2022-07-23T09:03:56;13.85;;;7.28;;
25123;SDS011;13104;51.030;4.686;2022-07-23T09:06:22;12.65;;;8.63;;
25123;SDS011;13104;51.030;4.686;2022-07-23T09:08:48;15.20;;;8.13;;
25123;SDS011;13104;51.030;4.686;2022-07-23T09:11:18;14.05;;;8.20;;
25123;SDS011;13104;51.030;4.686;2022-07-23T09:13:48;9.65;;;7.65;;
25123;SDS011;13104;51.030;4.686;2022-07-23T09:16:15;14.30;;;8.20;;
25123;SDS011;13104;51.030;4.686;2022-07-23T09:18:42;9.90;;;6.53;;
25123;SDS011;13104;51.030;4.686;2022-07-23T09:21:10;14.77;;;8.10;;
25123;SDS011;13104;51.030;4.686;2022-07-23T09:23:37;9.75;;;6.00;;
25123;SDS011;13104;51.030;4.686;2022-07-23T09:26:07;10.57;;;7.50;;
25123;SDS011;13104;51.030;4.686;2022-07-23T09:36:49;12.13;;;6.43;;
25123;SDS011;13104;51.030;4.686;2022-07-23T09:39:16;9.10;;;7.43;;
25123;SDS011;13104;51.030;4.686;2022-07-23T09:41:47;12.20;;;6.85;;
25123;SDS011;13104;51.030;4.686;2022-07-23T09:44:14;8.82;;;6.53;;
25123;SDS011;13104;51.030;4.686;2022-07-23T09:46:41;11.23;;;5.43;;
25123;SDS011;13104;51.030;4.686;2022-07-23T09:49:14;8.18;;;5.15;;
25123;SDS011;13104;51.030;4.686;2022-07-23T09:51:48;9.60;;;4.93;;
25123;SDS011;13104;51.030;4.686;2022-07-23T10:00:09;10.13;;;4.93;;
25123;SDS011;13104;51.030;4.686;2022-07-23T10:05:39;6.53;;;4.65;;
25123;SDS011;13104;51.030;4.686;2022-07-23T10:11:12;15.60;;;4.85;;
25123;SDS011;13104;51.030;4.686;2022-07-23T10:16:44;8.88;;;4.10;;
25123;SDS011;13104;51.030;4.686;2022-07-23T10:22:21;11.35;;;4.65;;
25123;SDS011;13104;51.030;4.686;2022-07-23T10:33:56;7.13;;;3.42;;
25123;SDS011;13104;51.030;4.686;2022-07-23T10:38:56;5.57;;;2.95;;
25123;SDS011;13104;51.030;4.686;2022-07-23T10:41:31;3.40;;;2.40;;
25123;SDS011;13104;51.030;4.686;2022-07-23T10:44:20;6.18;;;3.40;;
25123;SDS011;13104;51.030;4.686;2022-07-23T10:46:58;6.07;;;2.80;;
25123;SDS011;13104;51.030;4.686;2022-07-23T10:49:43;3.97;;;2.33;;
25123;SDS011;13104;51.030;4.686;2022-07-23T10:52:30;3.75;;;2.75;;
25123;SDS011;13104;51.030;4.686;2022-07-23T10:54:56;5.72;;;2.58;;
25123;SDS011;13104;51.030;4.686;2022-07-23T11:09:38;3.17;;;1.83;;
25123;SDS011;13104;51.030;4.686;2022-07-23T11:14:59;5.13;;;2.10;;
25123;SDS011;13104;51.030;4.686;2022-07-23T11:28:43;3.63;;;1.58;;
25123;SDS011;13104;51.030;4.686;2022-07-23T11:31:17;3.80;;;1.75;;
25123;SDS011;13104;51.030;4.686;2022-07-23T11:49:38;3.30;;;1.58;;
25123;SDS011;13104;51.030;4.686;2022-07-23T11:54:34;2.42;;;1.60;;
25123;SDS011;13104;51.030;4.686;2022-07-23T11:57:01;3.25;;;1.83;;
25123;SDS011;13104;51.030;4.686;2022-07-23T11:59:29;2.75;;;1.58;;
25123;SDS011;13104;51.030;4.686;2022-07-23T12:01:57;1.55;;;1.42;;
25123;SDS011;13104;51.030;4.686;2022-07-23T12:04:24;3.05;;;1.30;;
25123;SDS011;13104;51.030;4.686;2022-07-23T12:06:50;4.03;;;1.45;;
25123;SDS011;13104;51.030;4.686;2022-07-23T12:09:16;3.03;;;1.60;;
25123;SDS011;13104;51.030;4.686;2022-07-23T12:11:59;4.00;;;1.90;;
25123;SDS011;13104;51.030;4.686;2022-07-23T12:14:25;3.72;;;1.30;;
25123;SDS011;13104;51.030;4.686;2022-07-23T12:19:56;2.47;;;1.60;;
25123;SDS011;13104;51.030;4.686;2022-07-23T12:28:20;3.85;;;1.90;;
25123;SDS011;13104;51.030;4.686;2022-07-23T12:33:22;4.18;;;1.88;;
25123;SDS011;13104;51.030;4.686;2022-07-23T12:42:28;4.07;;;1.95;;
25123;SDS011;13104;51.030;4.686;2022-07-23T12:45:14;3.80;;;1.95;;
25123;SDS011;13104;51.030;4.686;2022-07-23T12:48:00;5.15;;;2.13;;
25123;SDS011;13104;51.030;4.686;2022-07-23T12:53:20;2.90;;;1.77;;
25123;SDS011;13104;51.030;4.686;2022-07-23T12:55:46;2.08;;;1.85;;
25123;SDS011;13104;51.030;4.686;2022-07-23T12:58:14;2.88;;;1.83;;
25123;SDS011;13104;51.030;4.686;2022-07-23T13:05:55;4.50;;;2.00;;
25123;SDS011;13104;51.030;4.686;2022-07-23T13:08:21;2.88;;;2.10;;
25123;SDS011;13104;51.030;4.686;2022-07-23T13:10:48;3.75;;;1.90;;
25123;SDS011;13104;51.030;4.686;2022-07-23T13:13:17;4.68;;;2.15;;
25123;SDS011;13104;51.030;4.686;2022-07-23T13:15:43;3.83;;;1.73;;
25123;SDS011;13104;51.030;4.686;2022-07-23T13:18:09;4.18;;;1.80;;
25123;SDS011;13104;51.030;4.686;2022-07-23T13:20:35;2.83;;;1.90;;
25123;SDS011;13104;51.030;4.686;2022-07-23T13:23:03;4.35;;;2.00;;
25123;SDS011;13104;51.030;4.686;2022-07-23T13:25:29;3.30;;;1.90;;
25123;SDS011;13104;51.030;4.686;2022-07-23T13:27:55;5.07;;;2.03;;
25123;SDS011;13104;51.030;4.686;2022-07-23T13:30:21;4.55;;;2.05;;
25123;SDS011;13104;51.030;4.686;2022-07-23T13:32:48;4.32;;;1.95;;
25123;SDS011;13104;51.030;4.686;2022-07-23T13:35:14;2.97;;;1.75;;
25123;SDS011;13104;51.030;4.686;2022-07-23T13:37:40;5.00;;;2.13;;
25123;SDS011;13104;51.030;4.686;2022-07-23T13:40:06;5.15;;;2.17;;
25123;SDS011;13104;51.030;4.686;2022-07-23T13:42:33;4.15;;;2.00;;
25123;SDS011;13104;51.030;4.686;2022-07-23T13:44:59;4.93;;;2.05;;
25123;SDS011;13104;51.030;4.686;2022-07-23T13:47:25;3.25;;;2.08;;
25123;SDS011;13104;51.030;4.686;2022-07-23T13:49:51;5.20;;;2.30;;
25123;SDS011;13104;51.030;4.686;2022-07-23T13:52:17;4.00;;;2.20;;
25123;SDS011;13104;51.030;4.686;2022-07-23T13:54:43;4.13;;;1.92;;
25123;SDS011;13104;51.030;4.686;2022-07-23T13:57:09;5.63;;;2.20;;
25123;SDS011;13104;51.030;4.686;2022-07-23T13:59:35;2.75;;;2.13;;
25123;SDS011;13104;51.030;4.686;2022-07-23T14:02:02;3.97;;;2.22;;
25123;SDS011;13104;51.030;4.686;2022-07-23T14:04:29;4.53;;;2.40;;
25123;SDS011;13104;51.030;4.686;2022-07-23T14:06:55;3.60;;;2.17;;
25123;SDS011;13104;51.030;4.686;2022-07-23T14:09:21;5.28;;;2.70;;
25123;SDS011;13104;51.030;4.686;2022-07-23T14:11:47;8.00;;;2.80;;
25123;SDS011;13104;51.030;4.686;2022-07-23T14:14:14;4.07;;;2.42;;
25123;SDS011;13104;51.030;4.686;2022-07-23T14:16:41;4.43;;;2.80;;
25123;SDS011;13104;51.030;4.686;2022-07-23T14:19:07;3.58;;;2.55;;
25123;SDS011;13104;51.030;4.686;2022-07-23T14:21:33;3.13;;;2.50;;
25123;SDS011;13104;51.030;4.686;2022-07-23T14:23:59;5.13;;;2.70;;
25123;SDS011;13104;51.030;4.686;2022-07-23T14:26:25;3.58;;;2.45;;
25123;SDS011;13104;51.030;4.686;2022-07-23T14:28:52;3.38;;;2.40;;
25123;SDS011;13104;51.030;4.686;2022-07-23T14:31:18;5.63;;;2.67;;
25123;SDS011;13104;51.030;4.686;2022-07-23T14:33:44;6.22;;;2.20;;
25123;SDS011;13104;51.030;4.686;2022-07-23T14:36:10;5.25;;;2.35;;
25123;SDS011;13104;51.030;4.686;2022-07-23T14:38:36;3.65;;;2.50;;
25123;SDS011;13104;51.030;4.686;2022-07-23T14:41:02;4.00;;;2.22;;
25123;SDS011;13104;51.030;4.686;2022-07-23T14:43:31;4.43;;;2.35;;
25123;SDS011;13104;51.030;4.686;2022-07-23T14:45:57;3.10;;;2.03;;
25123;SDS011;13104;51.030;4.686;2022-07-23T14:48:24;4.97;;;2.50;;
25123;SDS011;13104;51.030;4.686;2022-07-23T14:50:50;3.80;;;2.10;;
25123;SDS011;13104;51.030;4.686;2022-07-23T14:53:16;3.33;;;2.50;;
25123;SDS011;13104;51.030;4.686;2022-07-23T14:55:42;4.50;;;2.55;;
25123;SDS011;13104;51.030;4.686;2022-07-23T14:58:08;4.07;;;2.50;;
25123;SDS011;13104;51.030;4.686;2022-07-23T15:00:34;3.67;;;2.33;;
25123;SDS011;13104;51.030;4.686;2022-07-23T15:03:00;2.78;;;2.30;;
25123;SDS011;13104;51.030;4.686;2022-07-23T15:05:27;5.75;;;2.50;;
25123;SDS011;13104;51.030;4.686;2022-07-23T15:07:54;4.72;;;2.75;;
25123;SDS011;13104;51.030;4.686;2022-07-23T15:10:20;3.00;;;2.40;;
25123;SDS011;13104;51.030;4.686;2022-07-23T15:12:46;5.18;;;2.55;;
25123;SDS011;13104;51.030;4.686;2022-07-23T15:15:12;4.60;;;2.50;;
25123;SDS011;13104;51.030;4.686;2022-07-23T15:17:38;3.95;;;2.40;;
25123;SDS011;13104;51.030;4.686;2022-07-23T15:20:05;4.40;;;2.78;;
25123;SDS011;13104;51.030;4.686;2022-07-23T15:22:31;3.42;;;2.63;;
25123;SDS011;13104;51.030;4.686;2022-07-23T15:24:57;8.65;;;2.97;;
25123;SDS011;13104;51.030;4.686;2022-07-23T15:27:24;3.88;;;2.80;;
25123;SDS011;13104;51.030;4.686;2022-07-23T15:29:50;5.88;;;2.60;;
25123;SDS011;13104;51.030;4.686;2022-07-23T15:32:16;5.93;;;2.50;;
25123;SDS011;13104;51.030;4.686;2022-07-23T15:34:42;6.35;;;2.65;;
25123;SDS011;13104;51.030;4.686;2022-07-23T15:37:08;3.88;;;2.40;;
25123;SDS011;13104;51.030;4.686;2022-07-23T15:39:34;3.90;;;2.70;;
25123;SDS011;13104;51.030;4.686;2022-07-23T15:42:00;4.82;;;2.88;;
25123;SDS011;13104;51.030;4.686;2022-07-23T15:44:27;4.72;;;3.33;;
25123;SDS011;13104;51.030;4.686;2022-07-23T15:46:53;5.72;;;2.88;;
25123;SDS011;13104;51.030;4.686;2022-07-23T15:49:20;6.63;;;3.10;;
25123;SDS011;13104;51.030;4.686;2022-07-23T15:51:46;5.65;;;3.10;;
25123;SDS011;13104;51.030;4.686;2022-07-23T15:54:12;3.60;;;2.83;;
25123;SDS011;13104;51.030;4.686;2022-07-23T15:56:39;5.57;;;3.20;;
25123;SDS011;13104;51.030;4.686;2022-07-23T15:59:05;6.78;;;3.03;;
25123;SDS011;13104;51.030;4.686;2022-07-23T16:01:31;5.63;;;3.03;;
25123;SDS011;13104;51.030;4.686;2022-07-23T16:03:57;4.32;;;3.20;;
25123;SDS011;13104;51.030;4.686;2022-07-23T16:06:24;5.07;;;3.13;;
25123;SDS011;13104;51.030;4.686;2022-07-23T16:08:50;6.38;;;2.83;;
25123;SDS011;13104;51.030;4.686;2022-07-23T16:11:16;4.15;;;3.05;;
25123;SDS011;13104;51.030;4.686;2022-07-23T16:13:42;4.18;;;2.75;;
25123;SDS011;13104;51.030;4.686;2022-07-23T16:16:09;5.85;;;3.00;;
25123;SDS011;13104;51.030;4.686;2022-07-23T16:18:35;6.03;;;2.83;;
25123;SDS011;13104;51.030;4.686;2022-07-23T16:21:01;4.47;;;2.72;;
25123;SDS011;13104;51.030;4.686;2022-07-23T16:23:27;4.70;;;3.08;;
25123;SDS011;13104;51.030;4.686;2022-07-23T16:25:53;5.55;;;3.10;;
25123;SDS011;13104;51.030;4.686;2022-07-23T16:28:19;4.20;;;2.90;;
25123;SDS011;13104;51.030;4.686;2022-07-23T16:30:45;4.55;;;3.15;;
25123;SDS011;13104;51.030;4.686;2022-07-23T16:33:12;5.47;;;2.83;;
25123;SDS011;13104;51.030;4.686;2022-07-23T16:35:38;11.15;;;3.50;;
25123;SDS011;13104;51.030;4.686;2022-07-23T16:38:04;5.57;;;3.15;;
25123;SDS011;13104;51.030;4.686;2022-07-23T16:40:30;5.03;;;3.10;;
25123;SDS011;13104;51.030;4.686;2022-07-23T16:42:57;4.03;;;2.58;;
25123;SDS011;13104;51.030;4.686;2022-07-23T16:45:23;4.53;;;2.97;;
25123;SDS011;13104;51.030;4.686;2022-07-23T16:47:50;4.63;;;3.05;;